createdAt,value
2022-12-01T00:00:58.190Z,25.40
2022-12-01T00:01:58.290Z,27.80
2022-12-01T00:02:58.314Z,23.40
2022-12-01T00:03:58.185Z,24.50
2022-12-01T00:04:58.178Z,29.70
2022-12-01T00:05:58.211Z,24.30
2022-12-01T00:06:58.153Z,27.30
2022-12-01T00:07:58.204Z,30.30
2022-12-01T00:08:58.137Z,27.00
2022-12-01T00:09:58.121Z,28.90
2022-12-01T00:10:58.108Z,28.90
2022-12-01T00:11:58.176Z,27.70
2022-12-01T00:12:58.106Z,31.60
2022-12-01T00:13:58.113Z,28.50
2022-12-01T00:14:58.096Z,32.40
2022-12-01T00:15:58.067Z,33.70
2022-12-01T00:16:58.116Z,29.40
2022-12-01T00:17:58.131Z,33.60
2022-12-01T00:18:58.052Z,32.00
2022-12-01T00:19:58.059Z,29.90
2022-12-01T00:20:58.034Z,31.70
2022-12-01T00:21:58.046Z,32.30
2022-12-01T00:22:58.031Z,33.80
2022-12-01T00:23:58.235Z,37.30
2022-12-01T00:24:58.010Z,36.90
2022-12-01T00:25:58.009Z,36.80
2022-12-01T00:26:58.025Z,43.30
2022-12-01T00:27:58.001Z,50.00
2022-12-01T00:28:58.026Z,43.70
2022-12-01T00:29:58.041Z,44.50
2022-12-01T00:30:57.985Z,45.70
2022-12-01T00:31:58.019Z,41.00
2022-12-01T00:32:57.982Z,41.10
2022-12-01T00:33:57.975Z,43.80
2022-12-01T00:34:57.968Z,39.70
2022-12-01T00:35:58.011Z,40.90
2022-12-01T00:36:57.931Z,57.90
2022-12-01T00:37:57.923Z,52.60
2022-12-01T00:38:57.920Z,43.70
2022-12-01T00:39:57.914Z,42.00
2022-12-01T00:40:57.900Z,44.50
2022-12-01T00:41:57.958Z,43.90
2022-12-01T00:42:57.891Z,46.00
2022-12-01T00:43:57.902Z,43.10
2022-12-01T00:44:57.902Z,37.60
2022-12-01T00:45:57.945Z,43.70
2022-12-01T00:46:57.872Z,37.60
2022-12-01T00:47:57.885Z,42.50
2022-12-01T00:48:57.876Z,41.80
2022-12-01T00:49:57.876Z,37.90
2022-12-01T00:50:57.834Z,40.50
2022-12-01T00:51:57.844Z,49.10
2022-12-01T00:52:57.843Z,54.60
2022-12-01T00:53:57.860Z,41.60
2022-12-01T00:54:57.830Z,40.00
2022-12-01T00:55:57.802Z,39.60
2022-12-01T00:56:57.819Z,39.60
2022-12-01T00:57:57.798Z,44.60
2022-12-01T00:58:57.807Z,36.00
2022-12-01T00:59:57.860Z,35.60
2022-12-01T01:00:57.846Z,44.90
2022-12-01T01:01:57.856Z,40.10
2022-12-01T01:02:57.770Z,37.30
2022-12-01T01:03:57.770Z,39.90
2022-12-01T01:04:57.750Z,38.80
2022-12-01T01:05:57.788Z,35.10
2022-12-01T01:06:57.809Z,40.80
2022-12-01T01:07:57.812Z,44.70
2022-12-01T01:08:57.727Z,50.10
2022-12-01T01:09:57.696Z,52.20
2022-12-01T01:10:57.705Z,54.50
2022-12-01T01:11:57.747Z,46.50
2022-12-01T01:12:57.696Z,58.40
2022-12-01T01:13:57.677Z,60.30
2022-12-01T01:14:57.692Z,43.60
2022-12-01T01:15:57.682Z,52.90
2022-12-01T01:16:57.764Z,47.60
2022-12-01T01:17:57.704Z,52.80
2022-12-01T01:18:57.654Z,51.10
2022-12-01T01:19:57.640Z,54.00
2022-12-01T01:20:57.659Z,50.00
2022-12-01T01:21:57.616Z,50.70
2022-12-01T01:22:57.616Z,49.20
2022-12-01T01:23:58.056Z,57.30
2022-12-01T01:24:57.590Z,50.90
2022-12-01T01:25:57.586Z,55.10
2022-12-01T01:26:57.556Z,52.20
2022-12-01T01:27:57.577Z,48.50
2022-12-01T01:28:57.606Z,54.30
2022-12-01T01:29:57.659Z,62.40
2022-12-01T01:30:57.593Z,57.10
2022-12-01T01:31:57.548Z,51.80
2022-12-01T01:32:57.547Z,54.40
2022-12-01T01:33:57.529Z,60.60
2022-12-01T01:34:57.529Z,64.40
2022-12-01T01:35:57.580Z,65.90
2022-12-01T01:36:57.512Z,67.90
2022-12-01T01:37:57.508Z,70.50
2022-12-01T01:38:57.483Z,78.10
2022-12-01T01:39:57.505Z,79.90
2022-12-01T01:40:57.498Z,78.20
2022-12-01T01:41:57.514Z,69.70
2022-12-01T01:42:57.463Z,88.70
2022-12-01T01:43:57.489Z,109.70
2022-12-01T01:44:57.449Z,107.00
2022-12-01T01:45:57.520Z,90.10
2022-12-01T01:46:57.460Z,90.90
2022-12-01T01:47:57.497Z,85.90
2022-12-01T01:48:57.435Z,80.20
2022-12-01T01:49:57.428Z,80.40
2022-12-01T01:50:57.432Z,78.30
2022-12-01T01:51:57.408Z,81.80
2022-12-01T01:52:57.434Z,66.30
2022-12-01T01:53:57.478Z,63.40
2022-12-01T01:54:57.410Z,75.80
2022-12-01T01:55:57.411Z,64.20
2022-12-01T01:56:57.401Z,68.70
2022-12-01T01:58:18.823Z,75.40
2022-12-01T01:58:57.372Z,80.80
2022-12-01T01:59:57.414Z,80.60
2022-12-01T02:00:57.453Z,81.90
2022-12-01T02:01:57.349Z,78.40
2022-12-01T02:02:57.444Z,57.00
2022-12-01T02:03:57.355Z,68.10
2022-12-01T02:04:57.348Z,76.20
2022-12-01T02:06:01.833Z,69.30
2022-12-01T02:06:58.317Z,71.30
2022-12-01T02:07:57.372Z,82.00
2022-12-01T02:08:57.302Z,82.20
2022-12-01T02:09:57.316Z,76.60
2022-12-01T02:10:57.307Z,79.90
2022-12-01T02:11:57.324Z,82.80
2022-12-01T02:12:57.268Z,86.90
2022-12-01T02:13:57.277Z,78.70
2022-12-01T02:14:57.278Z,91.50
2022-12-01T02:15:57.262Z,87.80
2022-12-01T02:16:57.315Z,69.10
2022-12-01T02:17:57.299Z,90.00
2022-12-01T02:18:57.236Z,96.40
2022-12-01T02:19:57.208Z,88.50
2022-12-01T02:20:57.229Z,80.90
2022-12-01T02:21:57.212Z,83.80
2022-12-01T02:22:57.194Z,83.60
2022-12-01T02:23:57.470Z,84.30
2022-12-01T02:24:57.184Z,101.80
2022-12-01T02:25:57.167Z,92.60
2022-12-01T02:26:57.165Z,85.40
2022-12-01T02:27:57.156Z,107.30
2022-12-01T02:28:57.186Z,80.90
2022-12-01T02:29:57.203Z,91.90
2022-12-01T02:30:57.248Z,103.50
2022-12-01T02:31:57.133Z,99.60
2022-12-01T02:32:57.169Z,101.80
2022-12-01T02:33:57.122Z,101.20
2022-12-01T02:34:57.103Z,109.80
2022-12-01T02:35:57.159Z,102.10
2022-12-01T02:36:57.102Z,100.90
2022-12-01T02:37:57.102Z,91.50
2022-12-01T02:38:57.214Z,93.70
2022-12-01T02:39:57.092Z,108.90
2022-12-01T02:40:57.100Z,105.40
2022-12-01T02:41:57.110Z,124.40
2022-12-01T02:42:57.075Z,137.30
2022-12-01T02:43:57.055Z,129.40
2022-12-01T02:44:57.043Z,130.50
2022-12-01T02:45:57.080Z,115.10
2022-12-01T02:46:57.054Z,109.90
2022-12-01T02:47:57.108Z,105.40
2022-12-01T02:48:57.026Z,99.60
2022-12-01T02:49:57.020Z,116.30
2022-12-01T02:50:57.018Z,115.00
2022-12-01T02:51:57.009Z,84.10
2022-12-01T02:52:56.983Z,87.40
2022-12-01T02:53:57.053Z,107.20
2022-12-01T02:54:56.940Z,80.60
2022-12-01T02:55:56.977Z,101.90
2022-12-01T02:56:56.958Z,98.10
2022-12-01T02:57:56.952Z,80.40
2022-12-01T02:58:56.948Z,106.10
2022-12-01T02:59:56.982Z,97.70
2022-12-01T03:00:56.919Z,110.90
2022-12-01T03:01:56.911Z,105.80
2022-12-01T03:02:57.002Z,107.60
2022-12-01T03:03:56.906Z,131.00
2022-12-01T03:04:56.909Z,121.70
2022-12-01T03:05:56.965Z,114.10
2022-12-01T03:06:56.876Z,111.50
2022-12-01T03:07:56.898Z,133.30
2022-12-01T03:08:56.876Z,120.60
2022-12-01T03:09:56.863Z,113.50
2022-12-01T03:10:56.854Z,110.90
2022-12-01T03:11:56.913Z,111.10
2022-12-01T03:12:56.843Z,98.50
2022-12-01T03:13:56.824Z,88.10
2022-12-01T03:14:56.828Z,106.70
2022-12-01T03:15:56.870Z,101.80
2022-12-01T03:16:56.824Z,108.10
2022-12-01T03:17:56.852Z,111.20
2022-12-01T03:18:56.799Z,120.50
2022-12-01T03:19:56.797Z,108.50
2022-12-01T03:20:56.776Z,101.10
2022-12-01T03:21:56.777Z,98.60
2022-12-01T03:22:56.796Z,73.40
2022-12-01T03:23:56.822Z,85.80
2022-12-01T03:24:56.754Z,80.60
2022-12-01T03:25:56.775Z,102.80
2022-12-01T03:26:56.738Z,100.30
2022-12-01T03:28:20.101Z,109.30
2022-12-01T03:28:57.910Z,103.10
2022-12-01T03:29:56.783Z,112.20
2022-12-01T03:30:56.746Z,101.90
2022-12-01T03:31:56.721Z,96.30
2022-12-01T03:32:56.690Z,100.50
2022-12-01T03:33:56.750Z,104.00
2022-12-01T03:34:56.739Z,106.10
2022-12-01T03:35:56.811Z,107.00
2022-12-01T03:36:56.664Z,100.30
2022-12-01T03:37:56.787Z,114.90
2022-12-01T03:38:56.652Z,106.60
2022-12-01T03:40:00.257Z,85.30
2022-12-01T03:40:56.687Z,109.10
2022-12-01T03:41:56.641Z,124.60
2022-12-01T03:42:56.628Z,85.60
2022-12-01T03:43:56.647Z,112.20
2022-12-01T03:44:56.618Z,119.40
2022-12-01T03:45:56.693Z,105.60
2022-12-01T03:46:56.673Z,100.80
2022-12-01T03:47:56.625Z,105.40
2022-12-01T03:48:56.661Z,119.10
2022-12-01T03:49:56.599Z,110.50
2022-12-01T03:50:56.563Z,108.50
2022-12-01T03:51:56.582Z,108.20
2022-12-01T03:52:56.609Z,126.30
2022-12-01T03:53:56.681Z,138.70
2022-12-01T03:54:56.541Z,139.80
2022-12-01T03:55:56.547Z,117.90
2022-12-01T03:56:56.538Z,135.60
2022-12-01T03:57:56.567Z,140.30
2022-12-01T03:58:56.564Z,130.60
2022-12-01T03:59:56.520Z,114.00
2022-12-01T04:00:56.500Z,126.10
2022-12-01T04:01:56.553Z,98.90
2022-12-01T04:02:56.545Z,118.50
2022-12-01T04:03:56.500Z,137.50
2022-12-01T04:04:56.511Z,144.90
2022-12-01T04:05:56.484Z,141.50
2022-12-01T04:06:56.451Z,158.50
2022-12-01T04:07:56.527Z,141.60
2022-12-01T04:08:56.463Z,168.90
2022-12-01T04:09:56.525Z,140.30
2022-12-01T04:10:56.507Z,140.90
2022-12-01T04:11:56.447Z,143.30
2022-12-01T04:12:56.421Z,138.10
2022-12-01T04:13:56.430Z,131.20
2022-12-01T04:14:56.413Z,121.60
2022-12-01T04:15:56.442Z,138.90
2022-12-01T04:16:56.428Z,142.90
2022-12-01T04:17:56.461Z,149.60
2022-12-01T04:18:56.385Z,136.80
2022-12-01T04:19:56.361Z,129.00
2022-12-01T04:20:56.371Z,140.00
2022-12-01T04:21:56.379Z,145.00
2022-12-01T04:22:56.422Z,161.60
2022-12-01T04:23:56.344Z,147.80
2022-12-01T04:24:56.338Z,167.10
2022-12-01T04:25:56.333Z,152.30
2022-12-01T04:26:56.319Z,151.40
2022-12-01T04:27:56.319Z,161.90
2022-12-01T04:28:56.348Z,158.10
2022-12-01T04:29:56.322Z,168.60
2022-12-01T04:30:56.388Z,175.10
2022-12-01T04:31:56.278Z,169.70
2022-12-01T04:32:56.287Z,163.50
2022-12-01T04:33:56.284Z,175.90
2022-12-01T04:34:56.379Z,167.20
2022-12-01T04:35:56.279Z,159.70
2022-12-01T04:36:56.237Z,157.30
2022-12-01T04:37:56.252Z,161.50
2022-12-01T04:38:56.247Z,171.80
2022-12-01T04:39:56.226Z,159.10
2022-12-01T04:40:56.262Z,156.70
2022-12-01T04:41:56.222Z,158.80
2022-12-01T04:42:56.217Z,156.50
2022-12-01T04:43:56.201Z,154.40
2022-12-01T04:44:56.193Z,164.90
2022-12-01T04:45:56.182Z,153.70
2022-12-01T04:46:56.279Z,182.70
2022-12-01T04:47:56.181Z,172.20
2022-12-01T04:48:56.151Z,167.20
2022-12-01T04:49:56.183Z,168.60
2022-12-01T04:50:56.147Z,187.00
2022-12-01T04:51:56.153Z,185.30
2022-12-01T04:52:56.193Z,177.20
2022-12-01T04:53:56.135Z,170.80
2022-12-01T04:54:56.133Z,153.80
2022-12-01T04:55:56.122Z,173.50
2022-12-01T04:56:56.103Z,172.40
2022-12-01T04:57:56.105Z,163.50
2022-12-01T04:58:56.165Z,170.70
2022-12-01T04:59:56.093Z,157.40
2022-12-01T05:00:56.122Z,170.20
2022-12-01T05:01:56.149Z,174.10
2022-12-01T05:02:56.061Z,160.00
2022-12-01T05:03:56.076Z,155.30
2022-12-01T05:04:56.105Z,153.80
2022-12-01T05:05:56.050Z,152.40
2022-12-01T05:06:56.040Z,171.90
2022-12-01T05:07:56.078Z,169.40
2022-12-01T05:08:56.014Z,177.00
2022-12-01T05:09:56.043Z,148.90
2022-12-01T05:10:56.050Z,153.70
2022-12-01T05:11:56.134Z,161.00
2022-12-01T05:12:56.004Z,175.60
2022-12-01T05:13:55.970Z,181.50
2022-12-01T05:14:55.972Z,140.70
2022-12-01T05:15:56.035Z,133.30
2022-12-01T05:16:56.019Z,146.50
2022-12-01T05:17:55.959Z,143.10
2022-12-01T05:18:55.977Z,141.20
2022-12-01T05:19:55.947Z,151.30
2022-12-01T05:20:55.938Z,145.50
2022-12-01T05:21:55.932Z,144.20
2022-12-01T05:23:05.319Z,147.80
2022-12-01T05:23:56.935Z,143.10
2022-12-01T05:24:55.892Z,140.40
2022-12-01T05:25:55.904Z,150.70
2022-12-01T05:26:55.891Z,150.30
2022-12-01T05:27:55.890Z,172.60
2022-12-01T05:28:55.916Z,155.90
2022-12-01T05:29:55.871Z,178.50
2022-12-01T05:30:55.865Z,175.60
2022-12-01T05:31:55.905Z,174.90
2022-12-01T05:32:55.845Z,180.70
2022-12-01T05:33:55.840Z,154.60
2022-12-01T05:34:55.924Z,148.10
2022-12-01T05:35:55.824Z,161.30
2022-12-01T05:36:55.813Z,181.60
2022-12-01T05:37:55.831Z,183.10
2022-12-01T05:38:55.791Z,155.80
2022-12-01T05:39:55.785Z,178.60
2022-12-01T05:40:56.058Z,155.70
2022-12-01T05:41:55.786Z,160.20
2022-12-01T05:42:55.797Z,160.20
2022-12-01T05:43:55.785Z,172.80
2022-12-01T05:44:55.773Z,182.60
2022-12-01T05:45:55.913Z,155.80
2022-12-01T05:46:55.809Z,129.20
2022-12-01T05:47:55.736Z,150.50
2022-12-01T05:48:55.736Z,127.90
2022-12-01T05:49:59.531Z,161.60
2022-12-01T05:50:56.721Z,153.30
2022-12-01T05:51:55.720Z,138.10
2022-12-01T05:52:55.743Z,145.10
2022-12-01T05:53:55.703Z,143.70
2022-12-01T05:54:55.691Z,147.80
2022-12-01T05:55:55.653Z,152.60
2022-12-01T05:56:55.691Z,163.70
2022-12-01T05:57:55.662Z,144.00
2022-12-01T05:58:55.711Z,148.50
2022-12-01T05:59:55.637Z,132.90
2022-12-01T06:00:55.656Z,134.70
2022-12-01T06:01:55.678Z,132.20
2022-12-01T06:02:55.653Z,135.00
2022-12-01T06:03:55.699Z,144.90
2022-12-01T06:04:55.663Z,148.60
2022-12-01T06:05:55.617Z,126.80
2022-12-01T06:06:55.606Z,128.20
2022-12-01T06:07:55.640Z,135.20
2022-12-01T06:08:55.585Z,137.20
2022-12-01T06:09:55.591Z,135.70
2022-12-01T06:10:55.642Z,137.90
2022-12-01T06:11:55.579Z,136.20
2022-12-01T06:12:55.567Z,133.90
2022-12-01T06:13:55.578Z,127.20
2022-12-01T06:14:55.560Z,103.20
2022-12-01T06:15:55.591Z,122.70
2022-12-01T06:16:55.616Z,130.30
2022-12-01T06:17:55.524Z,127.60
2022-12-01T06:18:55.523Z,150.30
2022-12-01T06:19:55.512Z,143.00
2022-12-01T06:20:55.527Z,133.30
2022-12-01T06:21:55.508Z,153.60
2022-12-01T06:22:55.563Z,130.30
2022-12-01T06:23:55.497Z,149.20
2022-12-01T06:24:55.494Z,150.50
2022-12-01T06:25:55.471Z,140.50
2022-12-01T06:26:55.487Z,147.60
2022-12-01T06:27:55.476Z,133.70
2022-12-01T06:28:55.519Z,148.20
2022-12-01T06:29:55.451Z,129.90
2022-12-01T06:30:59.488Z,135.80
2022-12-01T06:31:56.492Z,126.20
2022-12-01T06:32:55.440Z,123.40
2022-12-01T06:33:55.435Z,146.40
2022-12-01T06:34:55.457Z,149.00
2022-12-01T06:35:55.398Z,121.80
2022-12-01T06:36:55.407Z,114.40
2022-12-01T06:37:55.398Z,130.20
2022-12-01T06:38:55.371Z,131.00
2022-12-01T06:39:55.404Z,141.00
2022-12-01T06:40:55.502Z,147.10
2022-12-01T06:41:55.359Z,142.80
2022-12-01T06:42:55.375Z,138.10
2022-12-01T06:43:55.347Z,146.80
2022-12-01T06:44:55.369Z,140.80
2022-12-01T06:46:01.256Z,143.50
2022-12-01T06:46:56.374Z,156.60
2022-12-01T06:47:55.340Z,153.80
2022-12-01T06:48:55.337Z,158.10
2022-12-01T06:49:55.310Z,162.00
2022-12-01T06:50:55.312Z,165.60
2022-12-01T06:51:55.311Z,148.80
2022-12-01T06:52:55.349Z,155.50
2022-12-01T06:53:55.301Z,149.40
2022-12-01T06:54:55.293Z,163.00
2022-12-01T06:55:55.274Z,167.20
2022-12-01T06:56:55.300Z,183.20
2022-12-01T06:57:55.269Z,185.20
2022-12-01T06:58:55.335Z,187.60
2022-12-01T06:59:55.252Z,167.00
2022-12-01T07:00:55.316Z,176.90
2022-12-01T07:01:55.279Z,191.90
2022-12-01T07:02:55.317Z,169.20
2022-12-01T07:03:55.222Z,165.30
2022-12-01T07:04:55.278Z,174.00
2022-12-01T07:05:55.210Z,157.30
2022-12-01T07:06:55.226Z,168.40
2022-12-01T07:07:59.532Z,172.60
2022-12-01T07:08:55.168Z,140.50
2022-12-01T07:09:55.184Z,149.40
2022-12-01T07:10:55.208Z,128.20
2022-12-01T07:11:55.156Z,135.90
2022-12-01T07:12:55.143Z,132.70
2022-12-01T07:13:55.152Z,141.20
2022-12-01T07:14:55.146Z,113.30
2022-12-01T07:15:55.154Z,120.70
2022-12-01T07:16:55.292Z,110.80
2022-12-01T07:17:55.112Z,95.90
2022-12-01T07:18:55.093Z,115.30
2022-12-01T07:19:55.112Z,118.00
2022-12-01T07:20:55.115Z,129.60
2022-12-01T07:21:55.081Z,134.20
2022-12-01T07:22:55.134Z,119.10
2022-12-01T07:23:55.096Z,116.90
2022-12-01T07:24:55.078Z,123.70
2022-12-01T07:25:55.074Z,91.30
2022-12-01T07:26:55.041Z,87.80
2022-12-01T07:27:55.063Z,95.70
2022-12-01T07:28:55.089Z,83.50
2022-12-01T07:29:55.062Z,109.30
2022-12-01T07:30:55.085Z,119.60
2022-12-01T07:31:55.023Z,86.60
2022-12-01T07:32:55.011Z,117.60
2022-12-01T07:33:55.023Z,108.30
2022-12-01T07:34:55.055Z,112.30
2022-12-01T07:35:55.132Z,101.00
2022-12-01T07:36:54.984Z,101.60
2022-12-01T07:37:54.952Z,102.40
2022-12-01T07:38:54.944Z,113.00
2022-12-01T07:39:54.986Z,115.80
2022-12-01T07:40:54.981Z,112.40
2022-12-01T07:41:54.938Z,106.90
2022-12-01T07:42:54.924Z,109.90
2022-12-01T07:43:54.926Z,91.10
2022-12-01T07:44:55.026Z,98.50
2022-12-01T07:45:54.966Z,102.20
2022-12-01T07:46:55.344Z,85.90
2022-12-01T07:47:54.909Z,98.60
2022-12-01T07:48:54.898Z,98.20
2022-12-01T07:49:54.875Z,99.40
2022-12-01T07:50:54.880Z,90.60
2022-12-01T07:51:54.870Z,102.50
2022-12-01T07:52:54.908Z,92.10
2022-12-01T07:53:54.868Z,86.10
2022-12-01T07:54:54.851Z,79.60
2022-12-01T07:55:54.861Z,93.00
2022-12-01T07:56:54.835Z,86.10
2022-12-01T07:57:54.826Z,87.50
2022-12-01T07:58:54.905Z,90.20
2022-12-01T07:59:54.799Z,96.10
2022-12-01T08:00:54.815Z,99.50
2022-12-01T08:01:54.811Z,82.90
2022-12-01T08:02:54.847Z,95.90
2022-12-01T08:03:54.799Z,96.90
2022-12-01T08:04:54.841Z,104.20
2022-12-01T08:05:54.798Z,105.10
2022-12-01T08:06:54.765Z,95.20
2022-12-01T08:07:54.825Z,104.90
2022-12-01T08:08:54.775Z,97.40
2022-12-01T08:09:54.762Z,100.00
2022-12-01T08:10:54.813Z,89.30
2022-12-01T08:11:54.744Z,105.30
2022-12-01T08:12:54.726Z,86.50
2022-12-01T08:13:54.701Z,89.90
2022-12-01T08:14:54.693Z,89.20
2022-12-01T08:15:54.734Z,92.50
2022-12-01T08:16:54.770Z,91.20
2022-12-01T08:17:54.687Z,92.00
2022-12-01T08:18:54.709Z,85.30
2022-12-01T08:19:54.673Z,92.70
2022-12-01T08:20:54.689Z,82.40
2022-12-01T08:21:54.663Z,79.80
2022-12-01T08:22:54.677Z,93.90
2022-12-01T08:23:54.665Z,85.80
2022-12-01T08:24:54.649Z,89.00
2022-12-01T08:25:54.638Z,88.70
2022-12-01T08:26:54.643Z,101.60
2022-12-01T08:27:54.608Z,99.20
2022-12-01T08:28:54.634Z,94.80
2022-12-01T08:29:54.600Z,94.50
2022-12-01T08:30:54.614Z,87.40
2022-12-01T08:31:54.592Z,90.30
2022-12-01T08:32:54.602Z,96.90
2022-12-01T08:33:54.588Z,92.80
2022-12-01T08:34:54.625Z,83.50
2022-12-01T08:35:54.562Z,94.50
2022-12-01T08:36:54.572Z,82.80
2022-12-01T08:37:54.561Z,86.90
2022-12-01T08:38:54.535Z,89.90
2022-12-01T08:39:54.527Z,86.70
2022-12-01T08:40:54.579Z,79.10
2022-12-01T08:41:54.517Z,78.00
2022-12-01T08:42:54.504Z,85.50
2022-12-01T08:43:59.055Z,82.40
2022-12-01T08:44:55.565Z,82.00
2022-12-01T08:45:54.514Z,83.70
2022-12-01T08:46:54.596Z,93.00
2022-12-01T08:47:54.519Z,86.50
2022-12-01T08:48:54.451Z,89.70
2022-12-01T08:49:54.449Z,84.20
2022-12-01T08:50:54.500Z,81.40
2022-12-01T08:51:54.464Z,88.50
2022-12-01T08:52:54.641Z,88.10
2022-12-01T08:53:54.453Z,85.90
2022-12-01T08:54:54.429Z,82.60
2022-12-01T08:55:54.449Z,78.20
2022-12-01T08:56:54.400Z,74.30
2022-12-01T08:57:54.398Z,68.80
2022-12-01T08:58:54.443Z,68.00
2022-12-01T08:59:54.398Z,72.30
2022-12-01T09:00:54.393Z,70.30
2022-12-01T09:01:54.456Z,67.50
2022-12-01T09:02:54.411Z,69.30
2022-12-01T09:03:54.365Z,65.50
2022-12-01T09:04:54.438Z,75.80
2022-12-01T09:05:54.366Z,73.00
2022-12-01T09:06:54.334Z,63.30
2022-12-01T09:07:54.381Z,70.80
2022-12-01T09:08:54.332Z,66.40
2022-12-01T09:09:54.313Z,66.90
2022-12-01T09:10:54.364Z,67.30
2022-12-01T09:11:54.301Z,63.00
2022-12-01T09:12:54.282Z,61.60
2022-12-01T09:13:54.798Z,66.40
2022-12-01T09:14:54.299Z,61.60
2022-12-01T09:15:54.362Z,62.50
2022-12-01T09:16:54.310Z,66.60
2022-12-01T09:17:54.245Z,67.90
2022-12-01T09:18:54.244Z,59.10
2022-12-01T09:19:54.239Z,65.20
2022-12-01T09:20:54.245Z,61.30
2022-12-01T09:21:54.264Z,60.70
2022-12-01T09:22:54.252Z,66.50
2022-12-01T09:23:54.195Z,64.90
2022-12-01T09:24:54.209Z,56.90
2022-12-01T09:25:54.543Z,67.50
2022-12-01T09:26:54.195Z,61.60
2022-12-01T09:27:54.195Z,56.10
2022-12-01T09:28:54.265Z,54.80
2022-12-01T09:29:54.160Z,55.20
2022-12-01T09:30:54.170Z,53.00
2022-12-01T09:31:54.223Z,53.10
2022-12-01T09:32:54.156Z,59.30
2022-12-01T09:33:54.287Z,61.10
2022-12-01T09:34:54.215Z,60.40
2022-12-01T09:35:54.129Z,59.60
2022-12-01T09:36:54.129Z,64.40
2022-12-01T09:37:54.119Z,61.00
2022-12-01T09:38:54.139Z,64.50
2022-12-01T09:39:54.100Z,59.30
2022-12-01T09:40:54.145Z,64.20
2022-12-01T09:41:54.154Z,63.70
2022-12-01T09:42:54.074Z,63.50
2022-12-01T09:43:54.085Z,63.50
2022-12-01T09:44:54.067Z,70.00
2022-12-01T09:45:54.044Z,57.90
2022-12-01T09:46:54.187Z,62.00
2022-12-01T09:47:54.054Z,63.80
2022-12-01T09:48:54.067Z,59.30
2022-12-01T09:49:54.048Z,62.60
2022-12-01T09:50:54.044Z,62.00
2022-12-01T09:51:54.008Z,64.80
2022-12-01T09:52:54.087Z,64.60
2022-12-01T09:53:53.988Z,58.90
2022-12-01T09:54:53.994Z,64.30
2022-12-01T09:55:56.677Z,67.50
2022-12-01T09:56:54.979Z,60.20
2022-12-01T09:57:54.571Z,68.10
2022-12-01T09:58:54.306Z,54.50
2022-12-01T09:59:53.951Z,60.90
2022-12-01T10:00:54.020Z,57.20
2022-12-01T10:01:54.096Z,60.70
2022-12-01T10:02:53.942Z,62.10
2022-12-01T10:03:53.922Z,63.20
2022-12-01T10:04:54.024Z,53.40
2022-12-01T10:06:25.107Z,59.40
2022-12-01T10:06:54.922Z,53.40
2022-12-01T10:07:53.944Z,52.80
2022-12-01T10:08:53.917Z,62.50
2022-12-01T10:09:53.913Z,56.40
2022-12-01T10:10:53.938Z,56.50
2022-12-01T10:11:53.880Z,54.20
2022-12-01T10:12:53.890Z,60.90
2022-12-01T10:13:53.873Z,59.90
2022-12-01T10:14:53.845Z,54.50
2022-12-01T10:15:53.875Z,50.30
2022-12-01T10:16:53.923Z,55.90
2022-12-01T10:17:53.846Z,53.80
2022-12-01T10:18:53.827Z,52.30
2022-12-01T10:19:53.820Z,53.40
2022-12-01T10:20:53.845Z,51.10
2022-12-01T10:21:53.835Z,50.40
2022-12-01T10:22:53.865Z,149.90
2022-12-01T10:23:53.803Z,54.20
2022-12-01T10:24:53.802Z,49.20
2022-12-01T10:25:53.805Z,51.30
2022-12-01T10:26:53.776Z,48.20
2022-12-01T10:27:53.771Z,54.40
2022-12-01T10:28:53.838Z,51.30
2022-12-01T10:29:54.069Z,46.80
2022-12-01T10:30:53.767Z,49.60
2022-12-01T10:31:53.859Z,46.40
2022-12-01T10:32:53.741Z,45.20
2022-12-01T10:33:53.714Z,46.60
2022-12-01T10:34:53.796Z,47.50
2022-12-01T10:35:53.716Z,50.50
2022-12-01T10:36:53.696Z,47.30
2022-12-01T10:37:53.740Z,51.70
2022-12-01T10:38:53.700Z,50.80
2022-12-01T10:39:53.717Z,50.00
2022-12-01T10:40:53.737Z,51.50
2022-12-01T10:41:53.677Z,53.00
2022-12-01T10:42:53.663Z,48.50
2022-12-01T10:43:53.672Z,48.40
2022-12-01T10:44:53.643Z,46.50
2022-12-01T10:45:53.715Z,45.20
2022-12-01T10:46:53.703Z,47.50
2022-12-01T10:47:57.584Z,39.90
2022-12-01T10:48:54.616Z,43.90
2022-12-01T10:49:53.714Z,43.40
2022-12-01T10:50:53.614Z,42.50
2022-12-01T10:51:53.573Z,46.10
2022-12-01T10:52:53.652Z,42.10
2022-12-01T10:53:53.602Z,44.40
2022-12-01T10:54:53.594Z,44.70
2022-12-01T10:55:53.558Z,46.20
2022-12-01T10:56:53.556Z,46.00
2022-12-01T10:57:53.573Z,51.20
2022-12-01T10:58:53.624Z,42.40
2022-12-01T10:59:53.547Z,45.00
2022-12-01T11:01:01.179Z,44.30
2022-12-01T11:01:54.692Z,37.70
2022-12-01T11:02:53.644Z,40.30
2022-12-01T11:03:53.542Z,43.30
2022-12-01T11:04:53.942Z,41.30
2022-12-01T11:05:53.518Z,40.90
2022-12-01T11:06:53.502Z,43.90
2022-12-01T11:07:53.605Z,45.20
2022-12-01T11:08:53.491Z,37.90
2022-12-01T11:09:53.461Z,44.60
2022-12-01T11:10:53.525Z,38.60
2022-12-01T11:11:53.451Z,39.80
2022-12-01T11:12:53.447Z,44.20
2022-12-01T11:13:53.454Z,44.60
2022-12-01T11:14:53.426Z,40.10
2022-12-01T11:15:53.428Z,38.80
2022-12-01T11:16:53.537Z,38.70
2022-12-01T11:17:53.431Z,36.70
2022-12-01T11:18:53.425Z,37.40
2022-12-01T11:19:53.592Z,32.30
2022-12-01T11:20:53.418Z,36.20
2022-12-01T11:21:53.388Z,34.60
2022-12-01T11:22:53.429Z,36.00
2022-12-01T11:23:53.384Z,36.40
2022-12-01T11:24:53.354Z,40.10
2022-12-01T11:25:53.356Z,37.60
2022-12-01T11:26:53.384Z,41.40
2022-12-01T11:27:53.355Z,34.30
2022-12-01T11:28:53.371Z,38.80
2022-12-01T11:29:53.328Z,41.20
2022-12-01T11:30:56.594Z,36.20
2022-12-01T11:31:53.384Z,36.30
2022-12-01T11:32:53.327Z,39.20
2022-12-01T11:33:53.315Z,35.90
2022-12-01T11:34:53.357Z,34.50
2022-12-01T11:35:53.331Z,38.80
2022-12-01T11:36:53.313Z,36.10
2022-12-01T11:38:21.139Z,35.40
2022-12-01T11:38:54.297Z,32.50
2022-12-01T11:39:53.321Z,32.90
2022-12-01T11:40:53.305Z,34.70
2022-12-01T11:41:53.260Z,34.90
2022-12-01T11:42:53.285Z,33.50
2022-12-01T11:44:01.220Z,36.40
2022-12-01T11:44:54.235Z,33.70
2022-12-01T11:45:53.267Z,34.90
2022-12-01T11:47:07.828Z,34.80
2022-12-01T11:47:54.199Z,35.00
2022-12-01T11:48:53.193Z,36.30
2022-12-01T11:49:53.354Z,34.70
2022-12-01T11:50:53.192Z,34.20
2022-12-01T11:51:53.195Z,32.90
2022-12-01T11:52:53.245Z,33.80
2022-12-01T11:53:53.157Z,37.00
2022-12-01T11:54:53.161Z,32.50
2022-12-01T11:55:53.153Z,34.90
2022-12-01T11:57:25.475Z,32.80
2022-12-01T11:57:54.178Z,42.20
2022-12-01T11:58:53.227Z,43.80
2022-12-01T11:59:53.269Z,41.90
2022-12-01T12:00:53.111Z,34.80
2022-12-01T12:01:53.199Z,36.80
2022-12-01T12:02:53.146Z,32.20
2022-12-01T12:03:53.235Z,37.40
2022-12-01T12:04:53.105Z,34.10
2022-12-01T12:05:57.658Z,33.30
2022-12-01T12:06:54.079Z,32.00
2022-12-01T12:07:53.098Z,29.40
2022-12-01T12:08:53.133Z,32.50
2022-12-01T12:09:53.518Z,30.20
2022-12-01T12:10:53.122Z,30.70
2022-12-01T12:11:53.014Z,35.70
2022-12-01T12:12:53.045Z,30.50
2022-12-01T12:13:53.019Z,32.90
2022-12-01T12:14:52.996Z,30.70
2022-12-01T12:15:53.103Z,31.10
2022-12-01T12:16:53.010Z,34.00
2022-12-01T12:17:53.077Z,32.00
2022-12-01T12:18:52.984Z,40.10
2022-12-01T12:20:07.679Z,33.50
2022-12-01T12:20:54.042Z,34.00
2022-12-01T12:21:52.973Z,34.70
2022-12-01T12:22:55.768Z,32.90
2022-12-01T12:23:53.010Z,35.80
2022-12-01T12:24:52.963Z,33.20
2022-12-01T12:25:52.927Z,38.50
2022-12-01T12:26:53.016Z,37.20
2022-12-01T12:27:52.934Z,34.00
2022-12-01T12:28:52.946Z,35.30
2022-12-01T12:29:53.070Z,39.10
2022-12-01T12:30:52.978Z,34.50
2022-12-01T12:31:52.906Z,36.90
2022-12-01T12:32:52.995Z,35.60
2022-12-01T12:33:52.941Z,34.70
2022-12-01T12:34:52.952Z,32.80
2022-12-01T12:35:52.873Z,35.40
2022-12-01T12:36:52.887Z,36.10
2022-12-01T12:37:52.865Z,36.10
2022-12-01T12:38:52.906Z,33.80
2022-12-01T12:39:52.941Z,31.60
2022-12-01T12:40:52.834Z,31.40
2022-12-01T12:41:52.841Z,30.10
2022-12-01T12:42:52.887Z,32.00
2022-12-01T12:43:52.852Z,33.50